Olympia Regional Airport
KOLM : rendu visible

Aérodrome :











RETROUVEZ-NOUS SUR...

 
LOGIN :

S'inscrire | Disclaimer

   EN    FR    IT 

 









Légende :    VFR   VFR Marginal   IFR   IFR Intensif   IFR Très Intensif
Visi : 
Plafond : 
>= 8 km
>= 3000ft
5 à 8 km
1000 à 3000 ft
1500m à 5 km
500 à 1000 ft
800 à 1500m
200 à 500 ft
< 800m
< 200 ft
Symboles :   Orages  Brouillard  Fortes neiges  Fortes précipitations  Vent > 20 kt






- Altitude de l'aérodrome : 209 ft
- Code IATA : OLM


KOLM - Olympia Regional

DERNIER METAR :
  • 300554Z AUTO 00000KT 10SM CLR 12/11 A3006 RMK AO2 SLP181 T01220111 10261 20122 51012

METARs EXPIRÉS :
  • 300454Z AUTO 00000KT 10SM CLR 13/12 A3005 RMK AO2 SLP177 T01330117
  • 300354Z AUTO 00000KT 10SM CLR 15/13 A3004 RMK AO2 SLP173 T01500128

TAF KOLM
Valide du 30 à 06h jusqu'au 01 à 06h UTC


300523Z 3006/0106 00000KT P6SM SCT100
FM301300 00000KT 2SM BR SCT100
FM301800 20005KT P6SM SCT070
FM010500 00000KT P6SM SKC
FIR KZSE / Amérique du Nord



MET'MAP, la Météo Aéronautique d'un coup d'oeil ! - Copyright ORBIFLY Décembre 2007 - Disclaimer

ORBIFLY MET'MAP TEAM :

Programmation & Développement : Alexandra Zaïnal
Sur une idée originale de : Baudouin d'Aumeries
Assistance à la programmation : Marc-Olivier Méhu
Soutien technique & logistique : Manuel Goepfert

Contact : metmap@orbifly.com




SOURCES & CREDITS :

   NOAA       Earth
Advisory